Time;durP1;ratioP1;P1;durP2;ratioP2;P2;SDS_P1;SDS_P2;PMS_P1;PMS_P2;Temp;Humidity;BMP_temperature;BMP_pressure;BME280_temperature;BME280_humidity;BME280_pressure;Samples;Min_cycle;Max_cycle;Signal;HPM_P1;HPM_P2
2023/09/01 00:01:11;;;;;;;6.95;0.95;;;;;;;;;;5088218;28;41341;-64
2023/09/01 00:04:01;;;;;;;1.30;0.80;;;;;;;;;;5075313;28;42810;-63
2023/09/01 00:06:29;;;;;;;0.93;0.60;;;;;;;;;;5088403;28;41761;-63
2023/09/01 00:08:57;;;;;;;2.22;0.70;;;;;;;;;;5087282;28;40853;-63
2023/09/01 00:11:25;;;;;;;2.17;0.95;;;;;;;;;;5087233;28;41296;-62
2023/09/01 00:13:53;;;;;;;1.90;0.70;;;;;;;;;;5088214;28;40441;-63
2023/09/01 00:16:21;;;;;;;2.33;0.77;;;;;;;;;;5087310;28;41774;-63
2023/09/01 00:18:49;;;;;;;2.13;0.65;;;;;;;;;;5087912;28;41962;-63
2023/09/01 00:21:19;;;;;;;1.63;0.60;;;;;;;;;;5086966;28;41331;-63
2023/09/01 00:23:46;;;;;;;1.98;0.70;;;;;;;;;;5087180;28;42290;-63
2023/09/01 00:26:14;;;;;;;0.90;0.60;;;;;;;;;;5087976;28;42210;-63
2023/09/01 00:28:47;;;;;;;1.58;0.70;;;;;;;;;;5088237;28;40379;-63
2023/09/01 00:31:16;;;;;;;1.77;0.90;;;;;;;;;;5086523;28;39790;-63
2023/09/01 00:33:44;;;;;;;1.15;0.50;;;;;;;;;;5087016;28;43259;-63
2023/09/01 00:36:12;;;;;;;1.77;0.70;;;;;;;;;;5078167;28;39991;-63
2023/09/01 00:38:42;;;;;;;1.42;0.73;;;;;;;;;;5078476;28;42160;-63
2023/09/01 00:41:10;;;;;;;2.35;0.65;;;;;;;;;;5085318;28;41308;-63
2023/09/01 00:43:38;;;;;;;1.20;0.80;;;;;;;;;;5077542;28;44440;-63
2023/09/01 00:46:06;;;;;;;0.95;0.63;;;;;;;;;;5084320;28;42061;-63
2023/09/01 00:48:34;;;;;;;1.52;0.60;;;;;;;;;;5084900;28;40082;-63
2023/09/01 00:51:02;;;;;;;1.35;0.70;;;;;;;;;;5084503;28;42741;-63
2023/09/01 00:53:30;;;;;;;1.25;0.77;;;;;;;;;;5085161;28;40709;-63
2023/09/01 00:55:59;;;;;;;1.75;0.75;;;;;;;;;;5086216;28;38998;-63
2023/09/01 00:58:28;;;;;;;1.40;0.70;;;;;;;;;;5084751;28;41696;-63
2023/09/01 01:00:58;;;;;;;2.65;0.90;;;;;;;;;;5088045;28;41528;-63
2023/09/01 01:03:26;;;;;;;2.35;0.88;;;;;;;;;;5084383;28;43357;-63
2023/09/01 01:05:57;;;;;;;0.60;0.60;;;;;;;;;;5086716;28;41858;-63
2023/09/01 01:08:28;;;;;;;1.58;0.70;;;;;;;;;;5080049;28;40999;-63
2023/09/01 01:10:59;;;;;;;1.73;0.73;;;;;;;;;;5087562;28;41975;-63
2023/09/01 01:13:29;;;;;;;2.60;0.77;;;;;;;;;;5084762;28;41077;-63
2023/09/01 01:15:57;;;;;;;2.35;0.77;;;;;;;;;;5087612;28;40278;-63
2023/09/01 01:18:25;;;;;;;3.75;0.90;;;;;;;;;;5085485;28;42198;-63
2023/09/01 01:20:56;;;;;;;0.60;0.50;;;;;;;;;;5086044;28;38996;-63
2023/09/01 01:23:26;;;;;;;2.50;0.70;;;;;;;;;;5085370;28;40454;-63
2023/09/01 01:25:54;;;;;;;2.05;0.73;;;;;;;;;;5085083;28;41712;-63
2023/09/01 01:28:22;;;;;;;0.60;0.60;;;;;;;;;;5085033;28;40449;-63
2023/09/01 01:30:50;;;;;;;3.15;0.70;;;;;;;;;;5085357;28;40201;-63
2023/09/01 01:33:23;;;;;;;1.00;0.65;;;;;;;;;;5087729;28;42090;-63
2023/09/01 01:35:52;;;;;;;1.50;0.60;;;;;;;;;;5085572;28;40099;-63
2023/09/01 01:38:22;;;;;;;0.77;0.60;;;;;;;;;;5090116;28;42092;-63
2023/09/01 01:40:51;;;;;;;1.88;0.90;;;;;;;;;;5090307;28;41927;-63
2023/09/01 01:43:21;;;;;;;2.35;0.70;;;;;;;;;;5088965;28;41415;-63
2023/09/01 01:45:49;;;;;;;2.53;0.80;;;;;;;;;;5076598;28;42858;-62
2023/09/01 01:48:17;;;;;;;1.05;0.70;;;;;;;;;;5082785;28;41396;-63
2023/09/01 01:50:46;;;;;;;1.10;0.70;;;;;;;;;;5090521;28;42207;-63
2023/09/01 01:53:14;;;;;;;0.70;0.60;;;;;;;;;;5089529;28;42389;-63
2023/09/01 01:55:43;;;;;;;1.00;0.90;;;;;;;;;;5090512;28;41357;-63
2023/09/01 01:58:12;;;;;;;0.93;0.77;;;;;;;;;;5123518;27;40133;-63
2023/09/01 02:00:41;;;;;;;0.95;0.70;;;;;;;;;;5087988;28;40638;-63
2023/09/01 02:03:09;;;;;;;0.90;0.68;;;;;;;;;;5090929;28;40648;-63
2023/09/01 02:05:37;;;;;;;0.60;0.60;;;;;;;;;;5090032;28;42438;-63
2023/09/01 02:08:05;;;;;;;1.75;0.90;;;;;;;;;;5089872;28;41076;-62
2023/09/01 02:10:34;;;;;;;0.70;0.70;;;;;;;;;;5090292;28;41650;-63
2023/09/01 02:13:04;;;;;;;1.45;0.77;;;;;;;;;;5090230;28;42651;-63
2023/09/01 02:15:33;;;;;;;1.30;0.80;;;;;;;;;;5089483;28;40673;-63
2023/09/01 02:18:01;;;;;;;1.00;0.90;;;;;;;;;;5087893;28;40642;-63
2023/09/01 02:20:30;;;;;;;1.00;0.70;;;;;;;;;;5089241;28;41644;-63
2023/09/01 02:22:58;;;;;;;0.80;0.68;;;;;;;;;;5088237;28;41730;-62
2023/09/01 02:25:27;;;;;;;0.93;0.70;;;;;;;;;;5087616;28;41515;-62
2023/09/01 02:27:56;;;;;;;1.10;0.80;;;;;;;;;;5090742;28;40418;-62
2023/09/01 02:30:24;;;;;;;1.52;0.75;;;;;;;;;;5121129;27;40180;-62
2023/09/01 02:32:54;;;;;;;0.60;0.60;;;;;;;;;;5089866;28;42666;-62
2023/09/01 02:35:22;;;;;;;2.78;1.00;;;;;;;;;;5089727;28;39676;-63
2023/09/01 02:37:50;;;;;;;0.80;0.73;;;;;;;;;;5089756;28;41287;-63
2023/09/01 02:40:18;;;;;;;0.95;0.63;;;;;;;;;;5089245;28;41968;-63
2023/09/01 02:42:46;;;;;;;0.70;0.70;;;;;;;;;;5088804;28;40028;-63
2023/09/01 02:45:14;;;;;;;1.27;0.90;;;;;;;;;;5089375;28;41230;-62
2023/09/01 02:47:43;;;;;;;1.85;0.70;;;;;;;;;;5089747;28;40291;-62
2023/09/01 02:50:13;;;;;;;0.98;0.88;;;;;;;;;;5087678;28;40018;-63
2023/09/01 02:52:40;;;;;;;1.17;0.90;;;;;;;;;;5089061;28;42596;-62
2023/09/01 02:55:09;;;;;;;0.93;0.68;;;;;;;;;;5090266;28;40135;-63
2023/09/01 02:57:37;;;;;;;2.08;0.73;;;;;;;;;;5087303;28;40050;-63
2023/09/01 03:00:14;;;;;;;0.68;0.60;;;;;;;;;;5089532;28;42732;-62
2023/09/01 03:02:43;;;;;;;1.55;0.70;;;;;;;;;;5109742;27;38697;-62
2023/09/01 03:05:13;;;;;;;0.93;0.68;;;;;;;;;;5115658;27;40456;-63
2023/09/01 03:07:41;;;;;;;1.30;0.80;;;;;;;;;;5087683;28;42516;-62
2023/09/01 03:10:10;;;;;;;1.15;1.00;;;;;;;;;;5121895;27;39751;-62
2023/09/01 03:12:38;;;;;;;2.30;0.70;;;;;;;;;;5088430;28;42625;-63
2023/09/01 03:15:07;;;;;;;0.63;0.60;;;;;;;;;;5089587;28;40167;-62
2023/09/01 03:17:35;;;;;;;1.10;0.80;;;;;;;;;;5087447;28;41229;-63
2023/09/01 03:20:05;;;;;;;0.73;0.73;;;;;;;;;;5087148;28;40509;-63
2023/09/01 03:22:34;;;;;;;1.10;1.00;;;;;;;;;;5088203;28;41361;-63
2023/09/01 03:25:02;;;;;;;0.88;0.70;;;;;;;;;;5087118;28;40492;-62
2023/09/01 03:27:31;;;;;;;1.73;0.95;;;;;;;;;;5087205;28;40244;-62
2023/09/01 03:30:00;;;;;;;0.75;0.70;;;;;;;;;;5087421;28;38763;-62
2023/09/01 03:32:33;;;;;;;1.08;0.77;;;;;;;;;;5086136;28;43443;-63
2023/09/01 03:35:02;;;;;;;0.70;0.70;;;;;;;;;;5087670;28;40696;-63
2023/09/01 03:37:30;;;;;;;1.10;0.70;;;;;;;;;;5086892;28;41192;-63
2023/09/01 03:39:59;;;;;;;0.70;0.68;;;;;;;;;;5088295;28;42446;-62
2023/09/01 03:42:27;;;;;;;1.35;0.95;;;;;;;;;;5087313;28;39585;-62
2023/09/01 03:44:55;;;;;;;1.55;0.90;;;;;;;;;;5089272;28;42593;-62
2023/09/01 03:47:23;;;;;;;0.60;0.60;;;;;;;;;;5087560;28;42170;-62
2023/09/01 03:49:51;;;;;;;1.45;0.85;;;;;;;;;;5088297;28;40390;-62
2023/09/01 03:52:19;;;;;;;2.03;1.00;;;;;;;;;;5074323;28;40866;-63
2023/09/01 03:54:47;;;;;;;0.98;0.70;;;;;;;;;;5085619;28;38875;-63
2023/09/01 03:57:17;;;;;;;0.68;0.60;;;;;;;;;;5088240;28;41638;-62
2023/09/01 03:59:47;;;;;;;1.58;1.10;;;;;;;;;;5088558;28;42184;-63
2023/09/01 04:02:15;;;;;;;0.77;0.70;;;;;;;;;;5088656;28;40041;-63
2023/09/01 04:04:43;;;;;;;0.75;0.75;;;;;;;;;;5113022;27;40207;-63
2023/09/01 04:07:11;;;;;;;0.70;0.70;;;;;;;;;;5083666;28;40708;-63
2023/09/01 04:09:39;;;;;;;0.85;0.70;;;;;;;;;;5089028;28;41029;-63
2023/09/01 04:12:07;;;;;;;1.30;0.73;;;;;;;;;;5088719;28;41648;-63
2023/09/01 04:14:37;;;;;;;3.00;1.00;;;;;;;;;;5087388;28;32568;-63
2023/09/01 04:17:05;;;;;;;1.48;0.60;;;;;;;;;;5088080;28;41253;-63
2023/09/01 04:19:33;;;;;;;1.15;0.93;;;;;;;;;;5106163;27;41757;-63
2023/09/01 04:22:02;;;;;;;1.00;0.73;;;;;;;;;;5085487;28;39596;-62
2023/09/01 04:24:31;;;;;;;1.13;1.00;;;;;;;;;;5085725;28;41307;-62
2023/09/01 04:26:58;;;;;;;1.27;0.88;;;;;;;;;;5084636;28;42344;-62
2023/09/01 04:29:27;;;;;;;1.42;0.90;;;;;;;;;;5085101;28;40248;-62
2023/09/01 04:31:57;;;;;;;1.27;0.80;;;;;;;;;;5072765;28;40156;-62
2023/09/01 04:34:25;;;;;;;1.00;0.88;;;;;;;;;;5086657;28;41917;-62
2023/09/01 04:36:53;;;;;;;2.47;0.85;;;;;;;;;;5086284;28;39816;-62
2023/09/01 04:39:21;;;;;;;1.90;0.82;;;;;;;;;;5086502;28;41496;-62
2023/09/01 04:41:49;;;;;;;0.90;0.80;;;;;;;;;;5119486;27;39010;-63
2023/09/01 04:44:17;;;;;;;0.82;0.70;;;;;;;;;;5085452;28;40280;-62
2023/09/01 04:46:45;;;;;;;1.20;0.90;;;;;;;;;;5088043;28;42829;-63
2023/09/01 04:49:14;;;;;;;0.82;0.70;;;;;;;;;;5118347;27;41268;-62
2023/09/01 04:51:42;;;;;;;1.10;0.80;;;;;;;;;;5119697;27;40378;-62
2023/09/01 04:54:10;;;;;;;2.08;0.70;;;;;;;;;;5088361;28;42754;-62
2023/09/01 04:56:37;;;;;;;1.45;0.75;;;;;;;;;;5088049;28;40565;-66
2023/09/01 04:59:06;;;;;;;1.52;0.90;;;;;;;;;;5085670;28;40973;-67
2023/09/01 05:01:34;;;;;;;1.15;0.80;;;;;;;;;;5080016;28;39894;-66
2023/09/01 05:04:02;;;;;;;1.27;0.80;;;;;;;;;;5086284;28;41950;-66
2023/09/01 05:06:32;;;;;;;1.10;0.85;;;;;;;;;;5076765;28;40676;-66
2023/09/01 05:09:00;;;;;;;1.27;0.80;;;;;;;;;;5087899;28;41359;-66
2023/09/01 05:11:29;;;;;;;1.08;0.70;;;;;;;;;;5084547;28;42474;-66
2023/09/01 05:13:57;;;;;;;1.38;0.90;;;;;;;;;;5087753;28;42088;-66
2023/09/01 05:16:25;;;;;;;2.15;0.80;;;;;;;;;;5084702;28;39923;-66
2023/09/01 05:18:54;;;;;;;1.30;1.05;;;;;;;;;;5082665;28;40771;-66
2023/09/01 05:21:21;;;;;;;1.27;1.00;;;;;;;;;;5076136;28;38873;-66
2023/09/01 05:23:52;;;;;;;0.90;0.80;;;;;;;;;;5082614;28;40163;-66
2023/09/01 05:26:20;;;;;;;1.38;0.80;;;;;;;;;;5081013;28;43250;-65
2023/09/01 05:28:48;;;;;;;1.30;0.75;;;;;;;;;;5078652;28;39429;-66
2023/09/01 05:31:16;;;;;;;1.20;0.90;;;;;;;;;;5083053;28;42228;-66
2023/09/01 05:33:46;;;;;;;1.05;0.95;;;;;;;;;;5084667;28;40399;-66
2023/09/01 05:36:14;;;;;;;1.20;1.00;;;;;;;;;;5081226;28;42097;-66
2023/09/01 05:38:42;;;;;;;1.20;0.80;;;;;;;;;;5082332;28;42815;-66
2023/09/01 05:41:13;;;;;;;1.17;0.90;;;;;;;;;;5083047;28;41567;-66
2023/09/01 05:43:41;;;;;;;1.15;0.70;;;;;;;;;;5084987;28;42587;-66
2023/09/01 05:46:09;;;;;;;1.20;0.75;;;;;;;;;;5079042;28;41905;-66
2023/09/01 05:48:37;;;;;;;1.27;0.90;;;;;;;;;;5084935;28;39942;-66
2023/09/01 05:51:05;;;;;;;1.20;0.80;;;;;;;;;;5084244;28;41165;-66
2023/09/01 05:53:33;;;;;;;1.20;0.90;;;;;;;;;;5086279;28;42145;-66
2023/09/01 05:56:01;;;;;;;1.13;1.00;;;;;;;;;;5079243;28;40451;-66
2023/09/01 05:58:30;;;;;;;1.20;0.70;;;;;;;;;;5081757;28;41803;-66
2023/09/01 06:00:58;;;;;;;0.70;0.70;;;;;;;;;;5085673;28;42238;-66
2023/09/01 06:03:26;;;;;;;0.95;0.80;;;;;;;;;;5087508;28;41180;-66
2023/09/01 06:05:54;;;;;;;1.13;0.90;;;;;;;;;;5086607;28;42113;-66
2023/09/01 06:08:22;;;;;;;1.38;0.90;;;;;;;;;;5086114;28;41244;-66
2023/09/01 06:10:50;;;;;;;1.98;1.00;;;;;;;;;;5079510;28;41679;-67
2023/09/01 06:13:18;;;;;;;1.20;1.00;;;;;;;;;;5086505;28;43276;-66
2023/09/01 06:15:48;;;;;;;3.88;1.00;;;;;;;;;;5084150;28;40011;-66
2023/09/01 06:18:16;;;;;;;3.17;0.90;;;;;;;;;;5077971;28;41499;-66
2023/09/01 06:20:44;;;;;;;2.25;0.90;;;;;;;;;;5087105;28;42652;-66
2023/09/01 06:23:12;;;;;;;1.17;0.90;;;;;;;;;;5049980;28;41106;-68
2023/09/01 06:25:40;;;;;;;1.98;1.10;;;;;;;;;;5049143;28;42283;-65
2023/09/01 06:28:08;;;;;;;1.45;0.95;;;;;;;;;;5048875;28;40848;-66
2023/09/01 06:30:36;;;;;;;5.20;2.45;;;;;;;;;;5048775;28;41924;-66
2023/09/01 06:33:07;;;;;;;6.28;2.72;;;;;;;;;;5048983;28;42798;-66
2023/09/01 06:35:36;;;;;;;2.65;1.80;;;;;;;;;;5040252;28;40582;-65
2023/09/01 06:38:05;;;;;;;9.63;2.33;;;;;;;;;;5043666;28;42385;-66
2023/09/01 06:40:33;;;;;;;2.88;1.70;;;;;;;;;;5047465;28;43229;-66
2023/09/01 06:43:01;;;;;;;7.78;2.40;;;;;;;;;;5045804;28;40919;-66
2023/09/01 06:45:29;;;;;;;9.25;3.10;;;;;;;;;;5035571;28;41773;-66
2023/09/01 06:47:57;;;;;;;9.90;2.97;;;;;;;;;;5049196;28;40181;-66
2023/09/01 06:50:28;;;;;;;16.15;2.20;;;;;;;;;;5047195;28;41445;-67
2023/09/01 06:52:56;;;;;;;9.75;2.50;;;;;;;;;;5048912;28;42319;-67
2023/09/01 06:55:24;;;;;;;13.40;3.17;;;;;;;;;;5048221;28;40476;-66
2023/09/01 06:57:52;;;;;;;13.25;4.13;;;;;;;;;;5044105;28;41473;-66
2023/09/01 07:00:20;;;;;;;10.73;3.78;;;;;;;;;;5047487;28;42158;-66
2023/09/01 07:02:48;;;;;;;6.72;3.28;;;;;;;;;;5046655;28;40270;-66
2023/09/01 07:05:17;;;;;;;17.92;3.63;;;;;;;;;;5047856;28;41078;-67
2023/09/01 07:07:46;;;;;;;8.55;3.88;;;;;;;;;;5049255;28;43119;-66
2023/09/01 07:10:15;;;;;;;8.60;3.30;;;;;;;;;;5048677;28;42620;-66
2023/09/01 07:12:44;;;;;;;14.23;3.80;;;;;;;;;;5049020;28;42235;-66
2023/09/01 07:15:12;;;;;;;14.27;3.42;;;;;;;;;;5048643;28;40670;-66
2023/09/01 07:17:40;;;;;;;9.70;3.30;;;;;;;;;;5046948;28;41743;-66
2023/09/01 07:20:09;;;;;;;9.45;3.10;;;;;;;;;;5048902;28;42780;-66
2023/09/01 07:22:37;;;;;;;15.60;3.95;;;;;;;;;;5078752;28;40939;-65
2023/09/01 07:25:09;;;;;;;6.85;4.10;;;;;;;;;;5088601;28;42165;-66
2023/09/01 07:27:37;;;;;;;8.43;3.55;;;;;;;;;;5087204;28;42112;-65
2023/09/01 07:30:05;;;;;;;5.22;3.20;;;;;;;;;;5089810;28;41406;-66
2023/09/01 07:32:33;;;;;;;9.20;3.30;;;;;;;;;;5082476;28;42417;-66
2023/09/01 07:35:03;;;;;;;7.15;3.40;;;;;;;;;;5088953;28;40917;-67
2023/09/01 07:37:31;;;;;;;9.57;3.22;;;;;;;;;;5086924;28;42183;-66
2023/09/01 07:39:59;;;;;;;10.45;3.67;;;;;;;;;;5087492;28;43156;-67
2023/09/01 07:42:28;;;;;;;6.32;3.47;;;;;;;;;;5088606;28;41284;-66
2023/09/01 07:44:56;;;;;;;12.07;4.13;;;;;;;;;;5088004;28;41349;-66
2023/09/01 07:47:24;;;;;;;8.63;3.42;;;;;;;;;;5088824;28;41883;-66
2023/09/01 07:49:52;;;;;;;8.80;4.03;;;;;;;;;;5088394;28;41178;-66
2023/09/01 07:52:20;;;;;;;5.97;3.30;;;;;;;;;;5088005;28;41284;-66
2023/09/01 07:54:48;;;;;;;12.85;3.47;;;;;;;;;;5088379;28;41330;-68
2023/09/01 07:57:16;;;;;;;8.40;3.25;;;;;;;;;;5088354;28;42633;-66
2023/09/01 07:59:45;;;;;;;5.72;3.58;;;;;;;;;;5086996;28;42955;-66
2023/09/01 08:02:13;;;;;;;7.78;3.80;;;;;;;;;;5088783;28;41365;-66
2023/09/01 08:04:41;;;;;;;6.50;3.90;;;;;;;;;;5087458;28;42421;-66
2023/09/01 08:07:09;;;;;;;7.55;3.70;;;;;;;;;;5087685;28;42018;-67
2023/09/01 08:09:37;;;;;;;8.27;4.03;;;;;;;;;;5085203;28;40127;-67
2023/09/01 08:12:06;;;;;;;6.90;3.58;;;;;;;;;;5088258;28;41889;-66
2023/09/01 08:14:34;;;;;;;15.43;4.18;;;;;;;;;;5087613;28;41727;-66
2023/09/01 08:17:03;;;;;;;16.13;3.85;;;;;;;;;;5087469;28;41532;-66
2023/09/01 08:19:31;;;;;;;8.23;4.35;;;;;;;;;;5087240;28;42668;-66
2023/09/01 08:22:01;;;;;;;8.02;3.55;;;;;;;;;;5087100;28;40362;-65
2023/09/01 08:24:31;;;;;;;9.32;3.45;;;;;;;;;;5085646;28;40128;-66
2023/09/01 08:26:59;;;;;;;7.38;3.35;;;;;;;;;;5080239;28;42102;-65
2023/09/01 08:29:30;;;;;;;7.50;3.72;;;;;;;;;;5087951;28;20231;-65
2023/09/01 08:31:58;;;;;;;6.43;3.60;;;;;;;;;;5088756;28;42226;-65
2023/09/01 08:34:27;;;;;;;6.07;3.83;;;;;;;;;;5087307;28;41976;-66
2023/09/01 08:36:55;;;;;;;6.38;3.45;;;;;;;;;;5088344;28;41637;-66
2023/09/01 08:39:23;;;;;;;11.18;3.17;;;;;;;;;;5088057;28;41963;-65
2023/09/01 08:41:51;;;;;;;7.00;4.18;;;;;;;;;;5086854;28;41399;-66
2023/09/01 08:44:20;;;;;;;8.52;3.67;;;;;;;;;;5088073;28;41805;-65
2023/09/01 08:46:48;;;;;;;10.77;3.70;;;;;;;;;;5085036;28;41740;-67
2023/09/01 08:49:16;;;;;;;9.55;3.25;;;;;;;;;;5086755;28;41330;-67
2023/09/01 08:51:46;;;;;;;9.07;4.20;;;;;;;;;;5087199;28;42621;-67
2023/09/01 08:54:15;;;;;;;8.20;3.78;;;;;;;;;;5087110;28;42885;-67
2023/09/01 08:56:43;;;;;;;6.63;3.58;;;;;;;;;;5081298;28;42237;-66
2023/09/01 08:59:11;;;;;;;12.48;4.35;;;;;;;;;;5087125;28;42043;-66
2023/09/01 09:01:39;;;;;;;5.53;3.92;;;;;;;;;;5080427;28;41344;-66
2023/09/01 09:04:07;;;;;;;7.55;3.70;;;;;;;;;;5086940;28;42598;-67
2023/09/01 09:06:36;;;;;;;8.90;3.78;;;;;;;;;;5086848;28;41503;-67
2023/09/01 09:09:06;;;;;;;6.60;3.60;;;;;;;;;;5087176;28;40083;-67
2023/09/01 09:11:34;;;;;;;11.73;3.47;;;;;;;;;;5086361;28;41925;-67
2023/09/01 09:14:02;;;;;;;4.57;3.53;;;;;;;;;;5087515;28;42132;-68
2023/09/01 09:16:50;;;;;;;6.90;3.70;;;;;;;;;;5085847;28;41483;-67
2023/09/01 09:19:19;;;;;;;7.70;3.90;;;;;;;;;;5083876;28;42757;-67
2023/09/01 09:21:47;;;;;;;5.38;3.65;;;;;;;;;;5086949;28;42211;-67
2023/09/01 09:24:16;;;;;;;6.55;3.63;;;;;;;;;;5085034;28;42585;-67
2023/09/01 09:26:55;;;;;;;5.60;3.58;;;;;;;;;;5087183;28;41853;-67
2023/09/01 09:29:24;;;;;;;6.15;3.50;;;;;;;;;;5086848;28;40407;-67
2023/09/01 09:31:52;;;;;;;7.07;3.80;;;;;;;;;;5086468;28;40948;-67
2023/09/01 09:34:22;;;;;;;5.70;3.88;;;;;;;;;;5086997;28;41755;-68
2023/09/01 09:36:50;;;;;;;7.40;3.80;;;;;;;;;;5087083;28;41462;-67
2023/09/01 09:39:23;;;;;;;12.20;4.43;;;;;;;;;;5084653;28;40445;-67
2023/09/01 09:41:51;;;;;;;7.28;3.88;;;;;;;;;;5083686;28;41670;-67
2023/09/01 09:44:23;;;;;;;7.15;3.78;;;;;;;;;;5085898;28;41203;-67
2023/09/01 09:46:51;;;;;;;8.55;3.95;;;;;;;;;;5086393;28;41813;-65
2023/09/01 09:49:19;;;;;;;4.38;3.78;;;;;;;;;;5087027;28;41034;-67
2023/09/01 09:51:47;;;;;;;9.65;4.28;;;;;;;;;;5085415;28;42223;-66
2023/09/01 09:54:15;;;;;;;7.72;4.20;;;;;;;;;;5089003;28;43021;-65
2023/09/01 09:56:44;;;;;;;6.38;4.25;;;;;;;;;;5084069;28;41209;-68
2023/09/01 09:59:13;;;;;;;6.15;4.10;;;;;;;;;;5089897;28;42099;-67
2023/09/01 10:01:41;;;;;;;9.85;4.50;;;;;;;;;;5089678;28;41960;-65
2023/09/01 10:04:10;;;;;;;8.10;4.47;;;;;;;;;;5090497;28;41186;-66
2023/09/01 10:06:39;;;;;;;6.40;4.35;;;;;;;;;;5088971;28;43416;-71
2023/09/01 10:09:08;;;;;;;6.38;3.70;;;;;;;;;;5090049;28;40508;-66
2023/09/01 10:11:36;;;;;;;7.82;3.80;;;;;;;;;;5083605;28;42222;-66
2023/09/01 10:14:05;;;;;;;8.85;4.57;;;;;;;;;;5089940;28;42195;-66
2023/09/01 10:16:33;;;;;;;9.13;5.03;;;;;;;;;;5088254;28;38762;-67
2023/09/01 10:19:01;;;;;;;10.60;5.25;;;;;;;;;;5088270;28;41290;-66
2023/09/01 10:21:29;;;;;;;12.40;4.97;;;;;;;;;;5087745;28;43082;-67
2023/09/01 10:23:57;;;;;;;10.77;4.25;;;;;;;;;;5087200;28;41295;-67
2023/09/01 10:26:28;;;;;;;12.68;4.22;;;;;;;;;;5089627;28;41661;-65
2023/09/01 10:28:57;;;;;;;8.35;3.50;;;;;;;;;;5086698;28;41434;-66
2023/09/01 10:31:26;;;;;;;7.03;3.90;;;;;;;;;;5088973;28;42141;-66
2023/09/01 10:34:04;;;;;;;5.47;4.00;;;;;;;;;;5089105;28;41996;-66
2023/09/01 10:36:32;;;;;;;5.85;3.97;;;;;;;;;;5085444;28;42524;-66
2023/09/01 10:39:12;;;;;;;11.90;3.85;;;;;;;;;;5090133;28;41556;-66
2023/09/01 10:41:47;;;;;;;16.42;4.25;;;;;;;;;;5085150;28;42316;-66
2023/09/01 10:44:15;;;;;;;13.13;4.63;;;;;;;;;;5088874;28;40608;-66
2023/09/01 10:46:44;;;;;;;10.65;5.07;;;;;;;;;;5089707;28;42745;-66
2023/09/01 10:49:12;;;;;;;11.63;5.60;;;;;;;;;;5089208;28;40838;-66
2023/09/01 10:51:40;;;;;;;10.30;6.47;;;;;;;;;;5088853;28;41082;-66
2023/09/01 10:54:32;;;;;;;9.68;6.25;;;;;;;;;;5090225;28;42093;-66
2023/09/01 10:57:02;;;;;;;10.27;6.68;;;;;;;;;;5078376;28;40116;-65
2023/09/01 10:59:30;;;;;;;11.38;6.30;;;;;;;;;;5089245;28;42448;-66
2023/09/01 11:02:03;;;;;;;8.80;6.53;;;;;;;;;;5088494;28;43075;-66
2023/09/01 11:04:30;;;;;;;9.68;7.55;;;;;;;;;;5085689;28;41307;-65
2023/09/01 11:07:03;;;;;;;11.88;8.60;;;;;;;;;;5089361;28;42619;-65
2023/09/01 11:09:49;;;;;;;11.77;9.70;;;;;;;;;;5088188;28;42054;-66
2023/09/01 11:12:18;;;;;;;16.05;10.68;;;;;;;;;;5085584;28;41340;-65
2023/09/01 11:14:54;;;;;;;13.00;11.00;;;;;;;;;;5089265;28;42031;-66
2023/09/01 11:17:38;;;;;;;16.05;11.95;;;;;;;;;;5087893;28;40395;-65
2023/09/01 11:20:09;;;;;;;17.90;11.68;;;;;;;;;;5086991;28;41485;-66
2023/09/01 11:22:40;;;;;;;19.10;13.80;;;;;;;;;;5088479;28;42256;-65
2023/09/01 11:25:09;;;;;;;18.55;13.80;;;;;;;;;;5088780;28;41949;-66
2023/09/01 11:27:37;;;;;;;19.13;14.45;;;;;;;;;;5088419;28;42302;-65
2023/09/01 11:30:06;;;;;;;28.00;15.98;;;;;;;;;;5087930;28;42166;-65
2023/09/01 11:32:34;;;;;;;25.30;14.80;;;;;;;;;;5088997;28;41158;-65
2023/09/01 11:35:04;;;;;;;21.83;14.50;;;;;;;;;;5089839;28;41793;-66
2023/09/01 11:37:36;;;;;;;27.88;15.48;;;;;;;;;;5089131;28;40065;-65
2023/09/01 11:40:07;;;;;;;18.40;13.63;;;;;;;;;;5090220;28;42292;-66
2023/09/01 11:42:36;;;;;;;17.73;13.52;;;;;;;;;;5088924;28;41945;-66
2023/09/01 11:45:05;;;;;;;19.73;14.02;;;;;;;;;;5085574;28;40404;-66
2023/09/01 11:47:33;;;;;;;18.88;12.80;;;;;;;;;;5085618;28;42063;-66
2023/09/01 11:50:01;;;;;;;19.98;13.35;;;;;;;;;;5088947;28;43079;-66
2023/09/01 11:52:30;;;;;;;21.65;12.32;;;;;;;;;;5087768;28;40943;-66
2023/09/01 11:54:58;;;;;;;15.57;12.52;;;;;;;;;;5087372;28;40072;-66
2023/09/01 11:57:26;;;;;;;15.27;12.18;;;;;;;;;;5087015;28;39919;-66
2023/09/01 11:59:54;;;;;;;15.25;11.43;;;;;;;;;;5087604;28;42520;-66
2023/09/01 12:02:22;;;;;;;18.02;11.25;;;;;;;;;;5088794;28;42775;-66
2023/09/01 12:04:50;;;;;;;14.48;10.95;;;;;;;;;;5088828;28;42777;-68
2023/09/01 12:07:25;;;;;;;18.35;11.35;;;;;;;;;;5086149;28;42383;-66
2023/09/01 12:09:54;;;;;;;14.27;11.05;;;;;;;;;;5089296;28;42656;-66
2023/09/01 12:12:22;;;;;;;13.52;10.35;;;;;;;;;;5088307;28;40382;-66
2023/09/01 12:14:50;;;;;;;16.52;10.88;;;;;;;;;;5088613;28;42471;-66
2023/09/01 12:17:18;;;;;;;16.17;10.88;;;;;;;;;;5087363;28;40524;-66
2023/09/01 12:19:48;;;;;;;17.30;10.25;;;;;;;;;;5088026;28;41679;-66
2023/09/01 12:22:16;;;;;;;14.20;10.10;;;;;;;;;;5086781;28;41569;-66
2023/09/01 12:24:50;;;;;;;11.98;10.27;;;;;;;;;;5088179;28;40042;-65
2023/09/01 12:27:19;;;;;;;15.50;9.45;;;;;;;;;;5085152;28;41431;-66
2023/09/01 12:29:48;;;;;;;12.68;9.70;;;;;;;;;;5088025;28;41693;-65
2023/09/01 12:32:17;;;;;;;15.15;10.27;;;;;;;;;;5088284;28;40526;-65
2023/09/01 12:34:45;;;;;;;11.65;9.73;;;;;;;;;;5087879;28;42414;-66
2023/09/01 12:37:15;;;;;;;16.23;9.45;;;;;;;;;;5085030;28;41393;-66
2023/09/01 12:39:43;;;;;;;12.32;10.07;;;;;;;;;;5088236;28;40900;-65
2023/09/01 12:42:11;;;;;;;11.18;9.98;;;;;;;;;;5087640;28;43160;-66
2023/09/01 12:44:41;;;;;;;15.57;11.05;;;;;;;;;;5088245;28;41108;-66
2023/09/01 12:47:09;;;;;;;22.23;10.52;;;;;;;;;;5088463;28;42225;-65
2023/09/01 12:49:37;;;;;;;19.80;11.00;;;;;;;;;;5086286;28;42177;-67
2023/09/01 12:52:06;;;;;;;12.35;9.57;;;;;;;;;;5088451;28;40852;-67
2023/09/01 12:54:34;;;;;;;16.42;9.48;;;;;;;;;;5087398;28;41378;-67
2023/09/01 12:57:02;;;;;;;13.40;10.30;;;;;;;;;;5088235;28;42544;-67
2023/09/01 12:59:32;;;;;;;11.90;9.50;;;;;;;;;;5087617;28;40353;-67
2023/09/01 13:02:01;;;;;;;17.80;10.32;;;;;;;;;;5087510;28;41640;-67
2023/09/01 13:04:31;;;;;;;13.10;9.70;;;;;;;;;;5086866;28;39786;-66
2023/09/01 13:07:00;;;;;;;11.88;9.30;;;;;;;;;;5088111;28;41724;-66
2023/09/01 13:09:28;;;;;;;11.00;8.93;;;;;;;;;;5086040;28;41626;-65
2023/09/01 13:11:56;;;;;;;12.77;9.85;;;;;;;;;;5087402;28;40265;-66
2023/09/01 13:14:24;;;;;;;11.75;8.25;;;;;;;;;;5087391;28;41398;-66
2023/09/01 13:16:52;;;;;;;13.70;8.98;;;;;;;;;;5087799;28;42125;-66
2023/09/01 13:19:21;;;;;;;11.00;9.57;;;;;;;;;;5087050;28;40150;-66
2023/09/01 13:21:49;;;;;;;11.93;9.13;;;;;;;;;;5087165;28;41584;-66
2023/09/01 13:24:17;;;;;;;14.57;9.73;;;;;;;;;;5086936;28;40380;-66
2023/09/01 13:26:45;;;;;;;15.82;8.70;;;;;;;;;;5087357;28;42646;-66
2023/09/01 13:29:13;;;;;;;14.25;8.82;;;;;;;;;;5092971;28;41676;-66
2023/09/01 13:31:41;;;;;;;10.00;8.43;;;;;;;;;;5093536;28;41896;-68
2023/09/01 13:34:09;;;;;;;10.73;9.18;;;;;;;;;;5095519;27;41547;-67
2023/09/01 13:36:38;;;;;;;12.00;8.65;;;;;;;;;;5093762;28;42124;-67
2023/09/01 13:39:06;;;;;;;11.90;8.82;;;;;;;;;;5093967;28;39787;-65
2023/09/01 13:41:34;;;;;;;10.15;8.57;;;;;;;;;;5094004;28;42370;-65
2023/09/01 13:44:02;;;;;;;16.30;9.27;;;;;;;;;;5093568;28;43018;-67
2023/09/01 13:46:31;;;;;;;12.68;9.02;;;;;;;;;;5094398;28;42632;-69
2023/09/01 13:49:00;;;;;;;10.95;8.73;;;;;;;;;;5093564;28;43036;-66
2023/09/01 13:51:28;;;;;;;10.88;8.90;;;;;;;;;;5092865;28;40435;-66
2023/09/01 13:53:57;;;;;;;9.88;8.38;;;;;;;;;;5091501;28;40853;-66
2023/09/01 13:56:25;;;;;;;10.98;8.27;;;;;;;;;;5094073;28;42270;-66
2023/09/01 13:58:53;;;;;;;12.48;9.07;;;;;;;;;;5093850;27;40078;-67
2023/09/01 14:01:21;;;;;;;10.63;8.20;;;;;;;;;;5093578;28;42079;-67
2023/09/01 14:03:49;;;;;;;11.32;8.95;;;;;;;;;;5094136;28;41653;-66
2023/09/01 14:06:17;;;;;;;11.68;9.00;;;;;;;;;;5093625;28;40149;-66
2023/09/01 14:08:46;;;;;;;10.80;9.05;;;;;;;;;;5093413;28;41929;-66
2023/09/01 14:11:15;;;;;;;10.73;8.38;;;;;;;;;;5093568;28;41297;-66
2023/09/01 14:13:43;;;;;;;15.82;8.80;;;;;;;;;;5092872;28;41279;-66
2023/09/01 14:16:11;;;;;;;11.73;8.57;;;;;;;;;;5094048;28;43258;-66
2023/09/01 14:18:40;;;;;;;9.88;7.88;;;;;;;;;;5092282;28;41059;-66
2023/09/01 14:21:08;;;;;;;9.90;8.30;;;;;;;;;;5092784;28;41174;-66
2023/09/01 14:23:36;;;;;;;10.85;8.40;;;;;;;;;;5090489;28;41712;-66
2023/09/01 14:26:04;;;;;;;14.23;8.40;;;;;;;;;;5092656;28;40654;-66
2023/09/01 14:28:33;;;;;;;12.10;8.85;;;;;;;;;;5093061;28;42621;-67
2023/09/01 14:31:01;;;;;;;10.88;8.20;;;;;;;;;;5093795;28;40644;-67
2023/09/01 14:33:29;;;;;;;13.27;9.10;;;;;;;;;;5092733;28;42234;-67
2023/09/01 14:36:13;;;;;;;12.35;8.88;;;;;;;;;;5090648;28;42848;-67
2023/09/01 14:38:41;;;;;;;19.15;9.40;;;;;;;;;;5093295;28;40456;-68
2023/09/01 14:41:09;;;;;;;12.90;8.90;;;;;;;;;;5089282;27;41161;-67
2023/09/01 14:43:38;;;;;;;14.10;8.93;;;;;;;;;;5089344;28;42799;-67
2023/09/01 14:46:06;;;;;;;18.85;10.00;;;;;;;;;;5090447;28;41240;-67
2023/09/01 14:48:34;;;;;;;12.57;9.05;;;;;;;;;;5088751;28;42567;-66